Accueil
METAR-TAF:

METAR-TAF

Aéroports :

Téhéran, Iran

Aéroport international Mehrabad

latitude: 35-41N, longitude: 051-21E, altitude: 1204 m

Observation

Le bulletin a été fait il y a 21 minutes, à 16:00 UTC
Vent 4 kt de sud-est
Température 26°C
Humidité 24%
Pression 1018 hPa
Visibilité 10 km ou plus
pas de nuages en-dessous de 1500 mètres et pas de cumulonimbus.

METAR: OIII 261600Z 14004KT CAVOK 26/04 Q1018 A3007 NOSIG

Heure: 19:51 (16:21 UTC)

Prévision

Le bulletin a été fait il y a 4 heures et 51 minutes, à 11:30 UTC
Prévision valable du 26 à 12 UTC au 27 à 18 UTC
Vent 8 kt de sud/sud-ouest
Visibilité: 8000 m
Quelques nuages à une hauteur de 4000 ft
Temporairement
du 27 à 12 UTC au 27 à 18 UTC
Quelques nuages à une hauteur de 3500 ft, Cumulus congestus.
Nuages épars à une hauteur de 4000 ft
Nuages épars à une hauteur de 10000 ft

TAF: OIII 261130Z 2612/2718 20004MPS 8000 FEW040 TEMPO 2712/2718 FEW035TCU SCT040 SCT100

Observations et prévisions météorologiques de plus de 4000 aéroports (messages METAR et TAF).

Les stations disponibles sont représentées par des disques jaunes et rouges sur la carte.

Passer la souris dessus pour voir le nom de la station.

Cliquer dessus pour voir les observations et prévisions météorologiques.

Pour changer de carte: cliquez sur les boutons verts avec une croix noire pour zoomer, sur le bouton vert avec un tiret pour effectuer un zoom arrière, ou sur les flèches vertes pour les cartes adjacentes.


METAR-TAF: